createdAt,value
2023-05-06T00:01:52.476Z,101399.17
2023-05-06T00:06:56.844Z,101394.97
2023-05-06T00:11:59.802Z,101392.40
2023-05-06T00:17:02.611Z,101394.71
2023-05-06T00:22:05.739Z,101391.67
2023-05-06T00:27:11.737Z,101390.47
2023-05-06T00:32:14.584Z,101390.27
2023-05-06T00:37:17.447Z,101390.05
2023-05-06T00:42:23.268Z,101382.67
2023-05-06T00:47:26.173Z,101382.33
2023-05-06T00:52:29.043Z,101384.52
2023-05-06T00:57:31.978Z,101388.48
2023-05-06T01:02:46.354Z,101394.89
2023-05-06T01:08:00.370Z,101390.29
2023-05-06T01:13:17.461Z,101393.58
2023-05-06T01:18:22.906Z,101393.60
2023-05-06T01:23:25.970Z,101399.52
2023-05-06T01:28:29.567Z,101404.44
2023-05-06T01:33:45.469Z,101405.59
2023-05-06T01:39:18.335Z,101407.45
2023-05-06T01:44:22.335Z,101410.84
2023-05-06T01:49:25.194Z,101405.52
2023-05-06T01:54:28.093Z,101409.19
2023-05-06T01:59:30.999Z,101407.64
2023-05-06T02:04:33.937Z,101409.89
2023-05-06T02:09:36.806Z,101409.39
2023-05-06T02:14:39.708Z,101405.89
2023-05-06T02:19:42.631Z,101401.23
2023-05-06T02:24:45.505Z,101390.83
2023-05-06T02:29:48.589Z,101397.05
2023-05-06T02:34:53.235Z,101391.41
2023-05-06T02:39:56.068Z,101390.52
2023-05-06T02:44:58.976Z,101384.48
2023-05-06T02:50:01.961Z,101376.06
2023-05-06T02:55:06.552Z,101372.12
2023-05-06T03:00:13.977Z,101374.23
2023-05-06T03:05:16.951Z,101370.99
2023-05-06T03:10:19.817Z,101367.48
2023-05-06T03:15:22.728Z,101370.77
2023-05-06T03:20:25.787Z,101376.34
2023-05-06T03:25:28.634Z,101380.83
2023-05-06T03:30:31.541Z,101385.77
2023-05-06T03:35:34.539Z,101393.59
2023-05-06T03:40:37.546Z,101405.37
2023-05-06T03:45:40.511Z,101404.56
2023-05-06T03:50:43.387Z,101399.44
2023-05-06T03:55:46.221Z,101409.26
2023-05-06T04:00:49.174Z,101413.20
2023-05-06T04:05:51.990Z,101413.42
2023-05-06T04:10:55.336Z,101409.41
2023-05-06T04:15:58.572Z,101407.16
2023-05-06T04:21:01.535Z,101405.86
2023-05-06T04:26:04.478Z,101403.94
2023-05-06T04:31:08.808Z,101397.24
2023-05-06T04:36:13.004Z,101400.54
2023-05-06T04:41:15.877Z,101402.48
2023-05-06T04:46:18.866Z,101402.41
2023-05-06T04:51:21.797Z,101401.06
2023-05-06T04:56:24.607Z,101399.80
2023-05-06T05:01:27.524Z,101396.47
2023-05-06T05:06:32.146Z,101389.59
2023-05-06T05:11:38.236Z,101389.77
2023-05-06T05:16:41.964Z,101382.21
2023-05-06T05:21:44.813Z,101384.50
2023-05-06T05:26:47.661Z,101380.17
2023-05-06T05:31:50.537Z,101375.77
2023-05-06T05:36:53.391Z,101373.65
2023-05-06T05:41:56.463Z,101373.16
2023-05-06T05:46:59.388Z,101364.91
2023-05-06T05:52:02.506Z,101365.13
2023-05-06T05:57:05.606Z,101361.64
2023-05-06T06:02:08.758Z,101360.20
2023-05-06T06:07:11.791Z,101358.17
2023-05-06T06:12:15.608Z,101356.28
2023-05-06T06:17:18.580Z,101352.86
2023-05-06T06:22:21.373Z,101358.90
2023-05-06T06:27:24.348Z,101361.18
2023-05-06T06:32:27.224Z,101361.16
2023-05-06T06:37:30.241Z,101356.21
2023-05-06T06:42:33.111Z,101359.37
2023-05-06T06:47:36.504Z,101357.20
2023-05-06T06:52:39.964Z,101356.05
2023-05-06T06:57:42.841Z,101359.44
2023-05-06T07:02:48.116Z,101358.75
2023-05-06T07:07:51.260Z,101353.91
2023-05-06T07:12:54.284Z,101350.06
2023-05-06T07:17:57.436Z,101343.43
2023-05-06T07:23:00.258Z,101329.92
2023-05-06T07:28:03.441Z,101327.63
2023-05-06T07:33:06.507Z,101326.40
2023-05-06T07:38:09.388Z,101322.25
2023-05-06T07:43:12.410Z,101316.79
2023-05-06T07:48:15.809Z,101313.42
2023-05-06T07:53:21.154Z,101319.60
2023-05-06T07:58:24.090Z,101316.64
2023-05-06T08:03:27.322Z,101316.34
2023-05-06T08:08:30.514Z,101321.94
2023-05-06T08:13:33.621Z,101316.59
2023-05-06T08:18:36.458Z,101316.89
2023-05-06T08:23:39.331Z,101317.77
2023-05-06T08:28:42.318Z,101325.98
2023-05-06T08:33:45.231Z,101327.17
2023-05-06T08:38:51.004Z,101318.91
2023-05-06T08:43:54.898Z,101318.34
2023-05-06T08:49:00.972Z,101309.88
2023-05-06T08:54:04.764Z,101313.09
2023-05-06T08:59:09.546Z,101312.95
2023-05-06T09:04:12.538Z,101314.70
2023-05-06T09:09:15.549Z,101311.46
2023-05-06T09:14:18.364Z,101311.59
2023-05-06T09:19:22.145Z,101314.15
2023-05-06T09:24:24.974Z,101315.13
2023-05-06T09:29:27.805Z,101310.73
2023-05-06T09:34:30.745Z,101306.17
2023-05-06T09:39:33.641Z,101298.48
2023-05-06T09:44:36.494Z,101297.77
2023-05-06T09:49:39.808Z,101296.73
2023-05-06T09:54:42.750Z,101294.70
2023-05-06T09:59:45.660Z,101286.23
2023-05-06T10:04:49.061Z,101284.36
2023-05-06T10:09:52.706Z,101276.27
2023-05-06T10:14:56.115Z,101275.31
2023-05-06T10:19:59.794Z,101263.99
2023-05-06T10:25:16.982Z,101253.65
2023-05-06T10:30:19.833Z,101254.02
2023-05-06T10:35:31.790Z,101255.20
2023-05-06T10:40:34.712Z,101252.90
2023-05-06T10:46:04.484Z,101246.20
2023-05-06T10:51:16.822Z,101237.85
2023-05-06T10:56:19.774Z,101235.60
2023-05-06T11:01:26.522Z,101230.95
2023-05-06T11:06:34.244Z,101223.45
2023-05-06T11:12:06.156Z,101221.15
2023-05-06T11:17:28.776Z,101218.31
2023-05-06T11:22:40.793Z,101216.23
2023-05-06T11:27:43.696Z,101215.39
2023-05-06T11:32:46.700Z,101216.91
2023-05-06T11:37:49.888Z,101215.86
2023-05-06T11:42:52.860Z,101216.52
2023-05-06T11:47:55.992Z,101222.56
2023-05-06T11:52:59.022Z,101222.29
2023-05-06T11:58:02.030Z,101229.71
2023-05-06T12:03:05.052Z,101227.05
2023-05-06T12:08:19.832Z,101230.95
2023-05-06T12:13:29.529Z,101230.59
2023-05-06T12:18:32.395Z,101236.28
2023-05-06T12:23:35.264Z,101235.99
2023-05-06T12:28:38.200Z,101239.70
2023-05-06T12:33:46.175Z,101236.71
2023-05-06T12:38:57.877Z,101234.14
2023-05-06T12:44:00.857Z,101239.76
2023-05-06T12:49:03.918Z,101241.77
2023-05-06T12:54:30.652Z,101241.02
2023-05-06T12:59:35.776Z,101234.79
2023-05-06T13:04:38.737Z,101231.27
2023-05-06T13:09:41.611Z,101231.78
2023-05-06T13:14:44.599Z,101228.55
2023-05-06T13:19:47.689Z,101224.55
2023-05-06T13:24:51.377Z,101216.59
2023-05-06T13:29:54.244Z,101217.23
2023-05-06T13:34:57.265Z,101209.21
2023-05-06T13:40:00.231Z,101202.09
2023-05-06T13:45:03.248Z,101190.81
2023-05-06T13:50:07.251Z,101182.92
2023-05-06T13:55:10.667Z,101170.73
2023-05-06T14:00:14.394Z,101157.45
2023-05-06T14:05:17.411Z,101148.77
2023-05-06T14:10:21.139Z,101141.31
2023-05-06T14:15:24.057Z,101133.30
2023-05-06T14:20:26.866Z,101132.82
2023-05-06T14:25:29.773Z,101122.83
2023-05-06T14:30:34.321Z,101120.19
2023-05-06T14:35:42.168Z,101112.27
2023-05-06T14:40:45.013Z,101106.49
2023-05-06T14:45:47.949Z,101110.48
2023-05-06T14:50:50.936Z,101110.09
2023-05-06T14:55:54.252Z,101107.59
2023-05-06T15:00:57.164Z,101114.91
2023-05-06T15:06:00.390Z,101125.03
2023-05-06T15:11:04.423Z,101127.35
2023-05-06T15:16:10.547Z,101128.45
2023-05-06T15:21:14.340Z,101127.79
2023-05-06T15:26:17.227Z,101129.09
2023-05-06T15:31:20.561Z,101130.13
2023-05-06T15:36:23.361Z,101131.04
2023-05-06T15:41:31.804Z,101134.58
2023-05-06T15:46:34.793Z,101134.79
2023-05-06T15:51:37.790Z,101138.21
2023-05-06T15:56:41.660Z,101131.74
2023-05-06T16:06:51.995Z,101143.52
2023-05-06T16:11:54.894Z,101149.19
2023-05-06T16:16:58.312Z,101155.20
2023-05-06T16:22:02.179Z,101162.77
2023-05-06T16:27:05.723Z,101168.38
2023-05-06T16:32:27.026Z,101176.45
2023-05-06T16:37:29.896Z,101190.82
2023-05-06T16:42:32.968Z,101197.08
2023-05-06T16:47:36.414Z,101193.58
2023-05-06T16:52:40.642Z,101193.64
2023-05-06T16:57:43.604Z,101194.41
2023-05-06T17:02:49.624Z,101193.54
2023-05-06T17:07:52.798Z,101194.10
2023-05-06T17:12:57.456Z,101197.27
2023-05-06T17:18:00.592Z,101199.31
2023-05-06T17:23:03.825Z,101202.61
2023-05-06T17:28:06.711Z,101204.27
2023-05-06T17:33:10.047Z,101205.12
2023-05-06T17:38:13.356Z,101199.52
2023-05-06T17:43:16.343Z,101196.45
2023-05-06T17:48:19.287Z,101196.41
2023-05-06T17:53:23.045Z,101194.94
2023-05-06T17:58:25.962Z,101193.48
2023-05-06T18:03:28.899Z,101198.42
2023-05-06T18:08:31.885Z,101203.65
2023-05-06T18:13:35.372Z,101209.52
2023-05-06T18:18:38.173Z,101214.99
2023-05-06T18:23:41.189Z,101219.04
2023-05-06T18:28:44.088Z,101221.84
2023-05-06T18:33:47.134Z,101227.71
2023-05-06T18:38:50.040Z,101234.94
2023-05-06T18:43:52.877Z,101240.02
2023-05-06T18:48:56.122Z,101234.80
2023-05-06T18:53:59.049Z,101234.25
2023-05-06T18:59:02.178Z,101232.56
2023-05-06T19:04:06.011Z,101234.58
2023-05-06T19:09:08.865Z,101236.11
2023-05-06T19:14:11.831Z,101238.64
2023-05-06T19:19:14.655Z,101240.23
2023-05-06T19:24:17.564Z,101239.57
2023-05-06T19:29:20.524Z,101238.86
2023-05-06T19:34:24.290Z,101232.47
2023-05-06T19:39:27.316Z,101231.83
2023-05-06T19:44:33.406Z,101230.20
2023-05-06T19:49:36.225Z,101218.71
2023-05-06T19:54:39.300Z,101220.40
2023-05-06T19:59:42.255Z,101219.80
2023-05-06T20:04:45.380Z,101220.62
2023-05-06T20:09:48.218Z,101223.63
2023-05-06T20:14:51.040Z,101228.77
2023-05-06T20:19:57.426Z,101228.61
2023-05-06T20:25:17.449Z,101231.18
2023-05-06T20:30:20.876Z,101232.45
2023-05-06T20:35:23.922Z,101233.33
2023-05-06T20:40:26.808Z,101238.05
2023-05-06T20:45:31.115Z,101238.98
2023-05-06T20:50:34.036Z,101237.38
2023-05-06T20:55:37.372Z,101232.18
2023-05-06T21:00:40.418Z,101231.15
2023-05-06T21:05:43.309Z,101227.76
2023-05-06T21:10:46.193Z,101225.84
2023-05-06T21:15:49.150Z,101230.44
2023-05-06T21:20:52.116Z,101231.59
2023-05-06T21:25:55.080Z,101232.95
2023-05-06T21:30:58.379Z,101230.55
2023-05-06T21:36:01.303Z,101236.02
2023-05-06T21:41:04.164Z,101235.84
2023-05-06T21:46:07.152Z,101238.04
2023-05-06T21:51:09.962Z,101239.24
2023-05-06T21:56:12.884Z,101238.80
2023-05-06T22:01:16.110Z,101233.93
2023-05-06T22:06:19.075Z,101240.29
2023-05-06T22:11:23.825Z,101237.02
2023-05-06T22:16:26.720Z,101232.75
2023-05-06T22:21:32.620Z,101233.36
2023-05-06T22:26:35.488Z,101234.29
2023-05-06T22:31:38.423Z,101230.45
2023-05-06T22:36:41.396Z,101231.98
2023-05-06T22:41:44.774Z,101234.06
2023-05-06T22:46:47.684Z,101233.02
2023-05-06T22:51:50.581Z,101235.27
2023-05-06T22:56:53.557Z,101237.02
2023-05-06T23:01:56.801Z,101232.04
2023-05-06T23:06:59.643Z,101231.22
2023-05-06T23:12:02.793Z,101229.58
2023-05-06T23:17:07.406Z,101231.02
2023-05-06T23:22:10.481Z,101231.87
2023-05-06T23:27:13.340Z,101237.65
2023-05-06T23:32:16.225Z,101239.84
2023-05-06T23:37:19.320Z,101242.98
2023-05-06T23:42:22.805Z,101247.48
2023-05-06T23:47:26.246Z,101251.36
2023-05-06T23:52:29.640Z,101253.02
2023-05-06T23:57:32.528Z,101260.02
